• Join FlightAware (Why Join?)
  • Login
  • US Flag 
05:49PM EDT


 

Airport Tracker/Info


-or-


 

Live Flight TrackerFlight Track Log ✈ N935SS ✈ 21-Apr-2013 ✈ KHPN - KBED

Flight Track Log - Related Links

Times and Time Zones

All times are in EDT time to prevent confusion due to time zone crossing. See the N935SS flight status page for this flight to view local times or setup timezone preferences in your user account.

Time Position Orientation Groundspeed Altitude Reporting Facility
EDT Latitude Longitude Course Direction KTS MPH feet Rate Location/Type
12:00PM 41.1000 -73.8000 61° Northeast 245 282 3,800  Level New York TRACON
12:02PM 41.2164 -73.8225 352° North 275 316 11,000 2,400 Climbing Boston Center
12:03PM 41.2389 -73.6822 78° East 315 362 11,300 480 Climbing Boston Center
12:04PM 41.2736 -73.5503 71° East 356 410 12,000 1,020 Climbing Boston Center
12:05PM 41.4903 -72.8713 61° Northeast  Level FlightAware Approximate
12:05PM 41.3106 -73.4100 71° East 397 457 13,400  Level Boston Center
12:06PM 41.3511 -73.2642 70° East 407 468 15,000 780 Climbing Boston Center
12:07PM 41.3981 -73.1097 68° East 420 483 15,000  Level Boston Center
12:08PM 41.4572 -72.9719 60° Northeast 432 497 15,000  Level Boston Center
12:09PM 41.5181 -72.8339 59° Northeast 432 497 15,000  Level Boston Center
12:10PM 41.5789 -72.6925 60° Northeast 437 503 15,000  Level Boston Center
12:11PM 41.6417 -72.5567 58° Northeast 437 503 15,000 -240 Level Boston Center
12:12PM 41.7211 -72.4653 41° Northeast 432 497 14,600 -1,440 Descending Boston Center
12:12PM 41.7814 -72.3983 40° Northeast 415 478 12,700 -2,700 Descending Boston Center
12:13PM 41.8189 -72.3564 40° Northeast 407 468 11,600 -1,680 Descending Boston Center
12:13PM 41.8606 -72.3092 40° Northeast 371 427 11,000 -600 Descending Boston Center
12:14PM 41.8958 -72.2672 42° Northeast 376 433 11,000  Level Boston Center
12:14PM 41.9542 -72.2028 39° Northeast 364 419 11,000 -420 Level Boston Center
12:15PM 41.9728 -72.1803 42° Northeast 359 413 10,600 -1,560 Descending Boston Center
12:15PM 42.0144 -72.1300 42° Northeast 311 358 9,600 -1,500 Descending Boston Center
12:16PM 42.0789 -72.0625 38° Northeast 293 337 8,100 -1,500 Descending Boston Center
12:17PM 42.1347 -71.9978 41° Northeast 271 312 6,600 -1,440 Descending Boston Center
12:19PM 42.2011 -71.9244 39° Northeast 245 282 5,000 -540 Descending Boston Center
12:21PM 42.3000 -71.8000 43° Northeast 264 304 5,100  Climbing KA90
12:22PM 42.3667 -71.7333 36° Northeast 267 307 5,100 -240 Level KA90
12:23PM 42.4167 -71.6500 51° Northeast 271 312 4,600 -720 Descending KA90
12:24PM 42.4333 -71.5667 75° East 265 305 3,700 -840 Descending KA90
12:25PM 42.4500 -71.4667 77° East 267 307 3,000 -780 Descending KA90
12:26PM 42.4833 -71.3667 66° East 268 308 2,200 -720 Descending KA90
12:27PM 42.5000 -71.3000 71° East 230 265 1,600 -300 Descending KA90
12:28PM 42.5000 -71.2167 90° East 174 200 1,600 -360 Level KA90
12:29PM 42.4667 -71.2333 200° South 150 173 900 -720 Descending KA90
12:31PM 42.4667 -71.2833 66° East  Level FlightAware Approximate
12:38PM 42.4699 -71.2890 66° East  Level Estimated